Time;durP1;ratioP1;P1;durP2;ratioP2;P2;SDS_P1;SDS_P2;PMS_P1;PMS_P2;Temp;Humidity;BMP_temperature;BMP_pressure;BME280_temperature;BME280_humidity;BME280_pressure;Samples;Min_cycle;Max_cycle;Signal;HPM_P1;HPM_P2
2023/01/16 09:34:57;;;;;;;2.37;1.50;;;;;;;3.87;91.08;96566.56;5109465;28;20571;-82
2023/01/16 09:37:24;;;;;;;3.47;1.97;;;;;;;4.48;89.55;96559.44;5091563;28;39255;-83
2023/01/16 09:39:52;;;;;;;4.13;1.93;;;;;;;5.06;84.47;96549.78;5109575;28;41848;-82
2023/01/16 09:45:29;;;;;;;2.50;1.40;;;;;;;6.25;76.95;96570.03;5087981;28;41838;-86
2023/01/16 09:48:02;;;;;;;2.37;1.30;;;;;;;6.66;74.02;96568.44;5071806;28;39444;-86
2023/01/16 09:50:37;;;;;;;1.70;1.10;;;;;;;7.21;70.40;96583.84;5088106;28;40535;-83
2023/01/16 09:58:49;;;;;;;2.60;1.20;;;;;;;8.04;64.79;96566.94;5092152;28;39196;-84
2023/01/16 10:01:21;;;;;;;2.60;1.13;;;;;;;8.16;63.11;96542.13;5125089;27;41786;-85
2023/01/16 10:03:50;;;;;;;1.80;1.00;;;;;;;8.37;61.53;96567.56;5107570;28;42913;-86
2023/01/16 10:06:39;;;;;;;1.57;1.30;;;;;;;8.44;60.27;96555.50;5088426;28;41336;-87
2023/01/16 10:09:17;;;;;;;1.30;1.00;;;;;;;8.51;59.15;96538.16;5088348;28;39108;-83
2023/01/16 10:11:55;;;;;;;1.33;1.03;;;;;;;9.17;58.91;96535.50;5089777;28;40805;-83
2023/01/16 10:14:51;;;;;;;3.13;0.90;;;;;;;9.35;57.63;96539.06;5074713;28;41231;-84
2023/01/16 10:17:30;;;;;;;3.47;1.17;;;;;;;9.66;56.46;96553.66;5091798;28;40954;-84
2023/01/16 10:20:24;;;;;;;1.43;0.93;;;;;;;9.79;55.84;96540.09;5072821;28;41947;-84
2023/01/16 10:23:03;;;;;;;1.00;0.90;;;;;;;9.85;54.43;96534.25;5091780;28;42112;-84
2023/01/16 10:25:36;;;;;;;1.97;1.00;;;;;;;9.85;52.60;96562.50;5088818;28;42648;-82
2023/01/16 10:28:20;;;;;;;7.73;1.20;;;;;;;9.31;53.55;96527.13;5074041;28;40874;-84
2023/01/16 10:30:52;;;;;;;2.97;1.00;;;;;;;9.91;53.34;96531.00;5112664;27;38901;-84
2023/01/16 10:33:28;;;;;;;1.43;0.80;;;;;;;10.91;52.37;96528.13;5090293;28;40823;-87
2023/01/16 10:35:59;;;;;;;1.60;0.87;;;;;;;11.36;50.88;96551.78;5108904;28;42835;-88
2023/01/16 10:38:45;;;;;;;1.23;1.00;;;;;;;11.10;49.74;96551.78;5093240;28;42528;-86
2023/01/16 10:49:30;;;;;;;1.27;1.17;;;;;;;9.69;51.60;96520.84;5078141;28;41783;-84
2023/01/16 10:52:01;;;;;;;1.57;1.10;;;;;;;9.48;52.57;96528.19;5095577;28;38997;-85
2023/01/16 10:54:31;;;;;;;2.57;1.03;;;;;;;9.16;53.25;96520.66;5077536;28;40651;-83
2023/01/16 10:57:03;;;;;;;3.27;1.03;;;;;;;8.70;54.70;96490.63;5093696;28;41907;-82
2023/01/16 10:59:32;;;;;;;2.10;0.67;;;;;;;8.21;58.07;96474.00;5077584;28;41075;-84
2023/01/16 11:02:12;;;;;;;1.33;0.80;;;;;;;7.94;60.69;96465.97;5110011;28;38798;-83
2023/01/16 11:04:40;;;;;;;0.87;0.60;;;;;;;7.59;64.40;96434.88;5110608;28;40824;-84
2023/01/16 11:07:17;;;;;;;1.70;0.67;;;;;;;7.30;68.03;96412.91;5072778;28;43083;-83
2023/01/16 11:09:47;;;;;;;0.97;0.50;;;;;;;7.13;69.70;96409.16;5056047;28;41006;-83
2023/01/16 11:20:49;;;;;;;1.90;0.60;;;;;;;6.42;74.83;96363.63;5093227;28;42524;-84
2023/01/16 11:23:20;;;;;;;0.60;0.60;;;;;;;6.44;77.01;96366.94;5078030;28;38827;-81
2023/01/16 11:25:51;;;;;;;0.90;0.80;;;;;;;6.37;77.54;96366.66;5092618;28;40859;-82
2023/01/16 11:28:22;;;;;;;0.60;0.60;;;;;;;6.27;77.81;96354.41;5075989;28;43707;-84
2023/01/16 11:30:55;;;;;;;1.83;0.80;;;;;;;6.21;78.52;96352.31;5090512;28;41627;-85
2023/01/16 11:33:25;;;;;;;2.00;0.60;;;;;;;6.03;78.79;96318.75;5110291;28;38871;-87
2023/01/16 11:35:55;;;;;;;0.93;0.60;;;;;;;5.98;78.59;96310.44;5073255;28;41609;-83
2023/01/16 11:38:24;;;;;;;1.27;0.73;;;;;;;5.80;78.65;96288.34;5089591;28;41837;-85
2023/01/16 11:40:57;;;;;;;0.90;0.70;;;;;;;5.68;78.34;96257.84;5081392;28;41652;-84
2023/01/16 11:46:31;;;;;;;1.23;0.90;;;;;;;6.01;77.95;96286.53;5072255;28;41098;-88
2023/01/16 11:49:00;;;;;;;2.20;0.63;;;;;;;6.03;77.72;96300.38;5055617;28;43545;-86
2023/01/16 11:51:30;;;;;;;0.70;0.70;;;;;;;6.23;77.05;96305.72;5065701;28;43774;-83
2023/01/16 11:54:01;;;;;;;2.23;0.80;;;;;;;6.30;77.02;96285.84;5072467;28;39910;-87
2023/01/16 11:56:51;;;;;;;1.03;0.70;;;;;;;6.44;76.57;96294.16;5072521;28;41131;-83
2023/01/16 11:59:31;;;;;;;1.00;0.83;;;;;;;6.40;75.86;96286.69;5075833;28;43266;-85
2023/01/16 12:02:19;;;;;;;0.80;0.80;;;;;;;6.53;75.48;96297.81;5076410;28;41433;-86
2023/01/16 12:07:50;;;;;;;1.00;0.80;;;;;;;6.57;72.02;96283.41;5075510;28;40918;-86
2023/01/16 12:10:31;;;;;;;0.87;0.77;;;;;;;6.64;71.92;96276.69;5076442;28;42881;-85
2023/01/16 12:16:04;;;;;;;1.63;0.73;;;;;;;7.01;70.12;96276.03;5089310;28;40302;-83
2023/01/16 12:18:41;;;;;;;3.33;0.80;;;;;;;7.08;68.22;96277.16;5074188;28;41642;-81
2023/01/16 12:21:22;;;;;;;1.97;0.80;;;;;;;7.21;66.95;96277.72;5092319;28;41931;-81
2023/01/16 12:24:21;;;;;;;1.47;0.70;;;;;;;7.23;65.03;96275.78;5084488;28;43299;-82
2023/01/16 12:27:04;;;;;;;0.50;0.50;;;;;;;7.29;64.16;96280.50;5075302;28;40305;-84
2023/01/16 12:29:43;;;;;;;1.47;0.40;;;;;;;7.19;64.09;96263.84;5091538;28;41653;-84
2023/01/16 12:32:33;;;;;;;0.70;0.70;;;;;;;7.03;64.01;96279.38;5092156;28;43806;-83
2023/01/16 12:35:24;;;;;;;0.93;0.60;;;;;;;7.06;64.27;96260.66;5091789;28;41078;-87
2023/01/16 12:38:09;;;;;;;0.80;0.70;;;;;;;6.90;67.14;96244.59;5072063;28;40993;-83
2023/01/16 12:43:17;;;;;;;0.40;0.40;;;;;;;6.78;69.45;96231.59;5071957;28;40945;-88
2023/01/16 12:43:51;;;;;;;0.93;0.57;;;;;;;6.53;70.78;96197.91;5061160;28;43237;-85
2023/01/16 12:46:32;;;;;;;1.13;0.83;;;;;;;6.25;72.00;96156.63;5075392;28;42152;-85
2023/01/16 12:49:08;;;;;;;0.67;0.57;;;;;;;6.33;72.19;96185.69;5091408;28;38904;-85
2023/01/16 12:51:48;;;;;;;0.70;0.70;;;;;;;6.25;73.55;96181.13;5075280;28;40715;-86
2023/01/16 12:54:46;;;;;;;0.70;0.70;;;;;;;6.29;73.78;96173.81;5108117;28;42021;-82
2023/01/16 12:57:27;;;;;;;0.97;0.70;;;;;;;6.10;74.01;96162.28;5074981;28;42157;-83
2023/01/16 13:00:00;;;;;;;2.63;0.87;;;;;;;6.08;73.73;96151.06;5071089;28;40339;-81
2023/01/16 13:02:38;;;;;;;0.80;0.70;;;;;;;6.19;73.92;96162.41;5071110;28;40516;-81
2023/01/16 13:05:12;;;;;;;0.50;0.50;;;;;;;6.17;73.55;96152.06;5072064;28;41930;-83
2023/01/16 13:07:47;;;;;;;0.53;0.53;;;;;;;6.20;73.66;96138.63;5088219;28;42864;-84
2023/01/16 13:13:27;;;;;;;0.70;0.70;;;;;;;6.26;72.25;96134.66;5055122;28;40734;-82
2023/01/16 13:16:01;;;;;;;1.27;0.80;;;;;;;6.18;72.69;96113.50;5074518;28;41713;-82
2023/01/16 13:18:39;;;;;;;0.70;0.67;;;;;;;6.21;72.63;96118.44;5073701;28;42490;-81
2023/01/16 13:21:14;;;;;;;0.93;0.73;;;;;;;6.29;73.35;96126.50;5074584;28;38779;-81
2023/01/16 13:23:48;;;;;;;0.73;0.70;;;;;;;6.35;73.40;96121.53;5073704;28;42617;-82
2023/01/16 13:26:18;;;;;;;0.60;0.60;;;;;;;6.35;73.31;96107.53;5071964;28;43678;-82
2023/01/16 13:28:53;;;;;;;0.57;0.53;;;;;;;6.27;74.61;96100.38;5073900;28;42425;-81
2023/01/16 13:31:31;;;;;;;1.10;0.70;;;;;;;6.23;74.39;96090.25;5088161;28;40966;-81
2023/01/16 13:34:07;;;;;;;0.67;0.67;;;;;;;6.27;74.30;96083.75;5089155;28;42025;-86
2023/01/16 13:37:13;;;;;;;0.70;0.70;;;;;;;6.14;75.77;96070.91;5088397;28;42785;-86
2023/01/16 13:40:09;;;;;;;1.10;0.67;;;;;;;6.11;75.67;96050.97;5071222;28;41471;-83
2023/01/16 13:42:42;;;;;;;0.63;0.63;;;;;;;6.21;75.45;96043.09;5074373;28;39445;-85
2023/01/16 13:48:15;;;;;;;0.60;0.60;;;;;;;6.15;76.39;96029.69;5074268;28;41398;-82
2023/01/16 13:50:52;;;;;;;0.63;0.40;;;;;;;6.22;76.14;96030.78;5091309;28;41823;-85
2023/01/16 13:53:22;;;;;;;0.63;0.60;;;;;;;5.88;76.13;95994.41;5072994;28;40101;-85
2023/01/16 13:55:51;;;;;;;0.83;0.70;;;;;;;6.36;76.06;96022.50;5074740;28;40778;-86
2023/01/16 13:58:22;;;;;;;0.83;0.70;;;;;;;6.43;76.08;96011.25;5073402;28;41962;-82
2023/01/16 14:00:58;;;;;;;1.20;0.57;;;;;;;6.53;75.78;96008.66;5074235;28;40827;-83
2023/01/16 14:03:28;;;;;;;0.60;0.60;;;;;;;6.55;75.19;96000.63;5069447;28;38672;-84
2023/01/16 14:06:22;;;;;;;0.90;0.60;;;;;;;6.69;75.22;95998.34;5054078;28;41665;-88
2023/01/16 14:09:08;;;;;;;0.63;0.50;;;;;;;6.77;75.25;95990.59;5060479;28;43077;-84
2023/01/16 14:11:57;;;;;;;1.27;0.70;;;;;;;6.77;75.15;95990.59;5090903;28;41601;-83
2023/01/16 14:17:21;;;;;;;0.97;0.80;;;;;;;6.89;74.13;95986.00;5073526;28;41863;-83
2023/01/16 14:19:59;;;;;;;0.70;0.70;;;;;;;6.87;73.42;95963.44;5070641;28;41697;-79
2023/01/16 14:25:23;;;;;;;0.90;0.80;;;;;;;6.83;73.08;95947.13;5090866;28;40235;-84
2023/01/16 14:27:57;;;;;;;1.33;0.80;;;;;;;7.02;73.19;95956.75;5093628;28;41727;-87
2023/01/16 14:30:32;;;;;;;0.80;0.73;;;;;;;6.96;72.19;95944.16;5077590;28;42219;-80
2023/01/16 14:33:05;;;;;;;1.67;0.97;;;;;;;7.07;72.36;95946.59;5090591;28;43141;-91
2023/01/16 14:35:45;;;;;;;1.90;0.83;;;;;;;6.95;71.83;95913.56;5076692;28;39707;-83
2023/01/16 14:38:19;;;;;;;0.70;0.70;;;;;;;7.07;72.09;95933.44;5091243;28;41427;-83
2023/01/16 14:55:45;;;;;;;0.83;0.60;;;;;;;7.33;69.81;95873.06;5056569;28;41291;-84
2023/01/16 14:58:16;;;;;;;0.77;0.73;;;;;;;7.23;69.57;95859.97;5058407;28;38992;-87
2023/01/16 15:00:45;;;;;;;1.20;0.70;;;;;;;7.10;69.96;95838.44;5077365;28;40961;-84
2023/01/16 15:03:16;;;;;;;0.67;0.50;;;;;;;7.10;69.60;95833.19;5109408;28;43456;-84
2023/01/16 15:05:53;;;;;;;0.80;0.80;;;;;;;7.19;69.30;95863.84;5077167;28;41314;-82
2023/01/16 15:08:26;;;;;;;0.83;0.83;;;;;;;6.97;70.30;95830.06;5076598;28;38877;-86
2023/01/16 15:10:57;;;;;;;2.07;1.10;;;;;;;6.97;70.26;95832.72;5081006;28;40641;-86
2023/01/16 15:13:27;;;;;;;1.17;0.80;;;;;;;6.90;70.61;95826.41;5109661;28;42586;-86
2023/01/16 15:15:59;;;;;;;0.77;0.77;;;;;;;6.57;71.08;95783.94;5093569;28;42714;-85
2023/01/16 15:24:00;;;;;;;1.40;0.90;;;;;;;6.56;72.05;95808.56;5063912;28;41652;-86
2023/01/16 15:26:55;;;;;;;1.10;0.90;;;;;;;6.43;73.09;95802.81;5110066;28;42437;-86
2023/01/16 15:29:38;;;;;;;1.00;0.90;;;;;;;6.27;73.10;95792.94;5075040;28;38749;-86
2023/01/16 15:32:17;;;;;;;2.63;1.03;;;;;;;6.25;73.65;95794.88;5077054;28;41740;-86
2023/01/16 15:34:45;;;;;;;1.10;1.00;;;;;;;6.08;73.92;95767.56;5072203;28;41758;-86
2023/01/16 15:37:27;;;;;;;1.43;1.23;;;;;;;6.04;74.78;95766.19;5056394;28;41472;-86
2023/01/16 15:39:54;;;;;;;2.43;1.40;;;;;;;6.02;74.69;95768.13;5072641;28;38630;-88
2023/01/16 15:48:14;;;;;;;1.37;1.03;;;;;;;5.74;75.59;95738.34;5076324;28;41527;-91
2023/01/16 15:50:51;;;;;;;1.90;0.90;;;;;;;5.78;75.99;95744.13;5077007;28;39980;-86
2023/01/16 15:53:19;;;;;;;0.90;0.70;;;;;;;5.76;75.92;95740.81;5074886;28;40643;-86
2023/01/16 15:55:50;;;;;;;1.60;0.80;;;;;;;5.64;75.83;95720.97;5075916;28;43927;-83
2023/01/16 15:58:21;;;;;;;0.70;0.70;;;;;;;5.53;75.86;95692.25;5075202;28;42086;-85
2023/01/16 16:00:55;;;;;;;2.00;1.00;;;;;;;5.63;75.75;95721.94;5075867;28;40005;-84
2023/01/16 16:03:28;;;;;;;0.73;0.70;;;;;;;5.69;75.47;95718.72;5091914;28;40529;-81
2023/01/16 16:06:01;;;;;;;1.03;0.93;;;;;;;5.62;75.36;95701.91;5076030;28;41597;-83
2023/01/16 16:08:32;;;;;;;0.83;0.70;;;;;;;5.71;75.15;95706.28;5090315;28;42448;-84
2023/01/16 16:13:51;;;;;;;1.03;1.00;;;;;;;5.70;74.94;95702.84;5071670;28;40587;-86
2023/01/16 16:19:07;;;;;;;0.90;0.70;;;;;;;5.59;74.88;95671.50;5065181;28;42315;-85
2023/01/16 16:22:47;;;;;;;1.30;1.00;;;;;;;5.67;74.41;95684.75;5076385;28;38850;-88
2023/01/16 16:24:27;;;;;;;0.80;0.70;;;;;;;5.39;74.63;95636.66;5071381;28;42012;-86
2023/01/16 16:26:55;;;;;;;0.80;0.80;;;;;;;5.58;73.92;95663.78;5055544;28;42769;-87
2023/01/16 16:29:25;;;;;;;1.07;0.87;;;;;;;5.68;73.87;95664.59;5066335;28;42083;-90
2023/01/16 16:31:54;;;;;;;0.60;0.60;;;;;;;5.73;73.59;95681.56;5075172;28;40206;-82
2023/01/16 16:34:23;;;;;;;1.03;0.93;;;;;;;5.69;73.34;95639.97;5090560;28;41762;-84
2023/01/16 16:36:56;;;;;;;1.63;0.70;;;;;;;5.80;72.73;95652.13;5091623;28;43127;-81
